sensor_id;sensor_type;location;lat;lon;timestamp;temperature;humidity
37378;DHT22;23248;48.120;14.854;2023-01-29T00:00:42;0.60;99.90
37378;DHT22;23248;48.120;14.854;2023-01-29T00:03:09;0.50;99.90
37378;DHT22;23248;48.120;14.854;2023-01-29T00:05:34;0.50;99.90
37378;DHT22;23248;48.120;14.854;2023-01-29T00:08:00;0.40;99.90
37378;DHT22;23248;48.120;14.854;2023-01-29T00:10:27;0.50;99.90
37378;DHT22;23248;48.120;14.854;2023-01-29T00:12:53;0.40;99.90
37378;DHT22;23248;48.120;14.854;2023-01-29T00:15:19;0.40;99.90
37378;DHT22;23248;48.120;14.854;2023-01-29T00:17:45;0.40;99.90
37378;DHT22;23248;48.120;14.854;2023-01-29T00:20:10;0.40;99.90
37378;DHT22;23248;48.120;14.854;2023-01-29T00:22:36;0.40;99.90
37378;DHT22;23248;48.120;14.854;2023-01-29T00:25:02;0.40;99.90
37378;DHT22;23248;48.120;14.854;2023-01-29T00:27:28;0.40;99.90
37378;DHT22;23248;48.120;14.854;2023-01-29T00:29:54;0.40;99.90
37378;DHT22;23248;48.120;14.854;2023-01-29T00:32:40;0.30;99.90
37378;DHT22;23248;48.120;14.854;2023-01-29T00:35:06;0.40;99.90
37378;DHT22;23248;48.120;14.854;2023-01-29T00:37:33;0.40;99.90
37378;DHT22;23248;48.120;14.854;2023-01-29T00:39:58;0.50;99.90
37378;DHT22;23248;48.120;14.854;2023-01-29T00:42:24;0.50;99.90
37378;DHT22;23248;48.120;14.854;2023-01-29T00:45:09;0.40;99.90
37378;DHT22;23248;48.120;14.854;2023-01-29T00:47:34;0.40;99.90
37378;DHT22;23248;48.120;14.854;2023-01-29T00:50:08;0.40;99.90
37378;DHT22;23248;48.120;14.854;2023-01-29T00:52:34;0.40;99.90
37378;DHT22;23248;48.120;14.854;2023-01-29T00:55:05;0.40;99.90
37378;DHT22;23248;48.120;14.854;2023-01-29T00:57:31;0.40;99.90
37378;DHT22;23248;48.120;14.854;2023-01-29T00:59:57;0.40;99.90
37378;DHT22;23248;48.120;14.854;2023-01-29T01:02:23;0.40;99.90
37378;DHT22;23248;48.120;14.854;2023-01-29T01:05:08;0.30;99.90
37378;DHT22;23248;48.120;14.854;2023-01-29T01:07:47;0.30;99.90
37378;DHT22;23248;48.120;14.854;2023-01-29T01:10:14;0.30;99.90
37378;DHT22;23248;48.120;14.854;2023-01-29T01:12:47;0.20;99.90
37378;DHT22;23248;48.120;14.854;2023-01-29T01:15:13;0.30;99.90
37378;DHT22;23248;48.120;14.854;2023-01-29T01:17:39;0.30;99.90
37378;DHT22;23248;48.120;14.854;2023-01-29T01:20:04;0.30;99.90
37378;DHT22;23248;48.120;14.854;2023-01-29T01:22:30;0.30;99.90
37378;DHT22;23248;48.120;14.854;2023-01-29T01:24:56;0.30;99.90
37378;DHT22;23248;48.120;14.854;2023-01-29T01:27:22;0.40;99.90
37378;DHT22;23248;48.120;14.854;2023-01-29T01:29:47;0.30;99.90
37378;DHT22;23248;48.120;14.854;2023-01-29T01:32:13;0.40;99.90
37378;DHT22;23248;48.120;14.854;2023-01-29T01:34:40;0.40;99.90
37378;DHT22;23248;48.120;14.854;2023-01-29T01:37:05;0.40;99.90
37378;DHT22;23248;48.120;14.854;2023-01-29T01:39:31;0.40;99.90
37378;DHT22;23248;48.120;14.854;2023-01-29T01:41:57;0.30;99.90
37378;DHT22;23248;48.120;14.854;2023-01-29T01:47:06;0.20;99.90
37378;DHT22;23248;48.120;14.854;2023-01-29T01:49:32;0.20;99.90
37378;DHT22;23248;48.120;14.854;2023-01-29T01:51:59;0.30;99.90
37378;DHT22;23248;48.120;14.854;2023-01-29T01:54:29;0.30;99.90
37378;DHT22;23248;48.120;14.854;2023-01-29T01:57:06;0.30;99.90
37378;DHT22;23248;48.120;14.854;2023-01-29T01:59:40;0.20;99.90
37378;DHT22;23248;48.120;14.854;2023-01-29T02:02:07;0.20;99.90
37378;DHT22;23248;48.120;14.854;2023-01-29T02:04:51;0.20;99.90
37378;DHT22;23248;48.120;14.854;2023-01-29T02:07:39;0.10;99.90
37378;DHT22;23248;48.120;14.854;2023-01-29T02:10:24;0.10;99.90
37378;DHT22;23248;48.120;14.854;2023-01-29T02:12:52;0.20;99.90
37378;DHT22;23248;48.120;14.854;2023-01-29T02:15:18;0.10;99.90
37378;DHT22;23248;48.120;14.854;2023-01-29T02:17:43;0.20;99.90
37378;DHT22;23248;48.120;14.854;2023-01-29T02:25:11;0.20;99.90
37378;DHT22;23248;48.120;14.854;2023-01-29T02:32:58;0.10;99.90
37378;DHT22;23248;48.120;14.854;2023-01-29T02:35:33;0.10;99.90
37378;DHT22;23248;48.120;14.854;2023-01-29T02:43:03;0.10;99.90
37378;DHT22;23248;48.120;14.854;2023-01-29T02:45:31;0.10;99.90
37378;DHT22;23248;48.120;14.854;2023-01-29T02:48:00;0.10;99.90
37378;DHT22;23248;48.120;14.854;2023-01-29T02:50:29;0.20;99.90
37378;DHT22;23248;48.120;14.854;2023-01-29T02:53:09;0.10;99.90
37378;DHT22;23248;48.120;14.854;2023-01-29T02:58:14;0.20;99.90
37378;DHT22;23248;48.120;14.854;2023-01-29T03:00:42;0.20;99.90
37378;DHT22;23248;48.120;14.854;2023-01-29T03:05:39;0.20;99.90
37378;DHT22;23248;48.120;14.854;2023-01-29T03:08:10;0.20;99.90
37378;DHT22;23248;48.120;14.854;2023-01-29T03:10:38;0.20;99.90
37378;DHT22;23248;48.120;14.854;2023-01-29T03:13:11;0.20;99.90
37378;DHT22;23248;48.120;14.854;2023-01-29T03:15:43;0.20;99.90
37378;DHT22;23248;48.120;14.854;2023-01-29T03:18:15;0.20;99.90
37378;DHT22;23248;48.120;14.854;2023-01-29T03:20:43;0.20;99.90
37378;DHT22;23248;48.120;14.854;2023-01-29T03:23:32;0.20;99.90
37378;DHT22;23248;48.120;14.854;2023-01-29T03:26:18;0.20;99.90
37378;DHT22;23248;48.120;14.854;2023-01-29T03:29:04;0.20;99.90
37378;DHT22;23248;48.120;14.854;2023-01-29T03:31:49;0.20;99.90
37378;DHT22;23248;48.120;14.854;2023-01-29T03:34:28;0.20;99.90
37378;DHT22;23248;48.120;14.854;2023-01-29T03:37:07;0.20;99.90
37378;DHT22;23248;48.120;14.854;2023-01-29T03:39:35;0.20;99.90
37378;DHT22;23248;48.120;14.854;2023-01-29T03:42:02;0.20;99.90
37378;DHT22;23248;48.120;14.854;2023-01-29T03:44:34;0.20;99.90
37378;DHT22;23248;48.120;14.854;2023-01-29T03:47:16;0.30;99.90
37378;DHT22;23248;48.120;14.854;2023-01-29T03:49:53;0.20;99.90
37378;DHT22;23248;48.120;14.854;2023-01-29T03:52:22;0.20;99.90
37378;DHT22;23248;48.120;14.854;2023-01-29T03:54:53;0.20;99.90
37378;DHT22;23248;48.120;14.854;2023-01-29T04:02:21;0.20;99.90
37378;DHT22;23248;48.120;14.854;2023-01-29T04:04:52;0.20;99.90
37378;DHT22;23248;48.120;14.854;2023-01-29T04:07:26;0.20;99.90
37378;DHT22;23248;48.120;14.854;2023-01-29T04:12:29;0.20;99.90
37378;DHT22;23248;48.120;14.854;2023-01-29T04:14:56;0.20;99.90
37378;DHT22;23248;48.120;14.854;2023-01-29T04:17:26;0.20;99.90
37378;DHT22;23248;48.120;14.854;2023-01-29T04:19:54;0.30;99.90
37378;DHT22;23248;48.120;14.854;2023-01-29T04:22:21;0.20;99.90
37378;DHT22;23248;48.120;14.854;2023-01-29T04:24:47;0.10;99.90
37378;DHT22;23248;48.120;14.854;2023-01-29T04:27:22;0.10;99.90
37378;DHT22;23248;48.120;14.854;2023-01-29T04:29:53;0.10;99.90
37378;DHT22;23248;48.120;14.854;2023-01-29T04:35:10;0.10;99.90
37378;DHT22;23248;48.120;14.854;2023-01-29T04:40:17;0.20;99.90
37378;DHT22;23248;48.120;14.854;2023-01-29T04:45:26;0.20;99.90
37378;DHT22;23248;48.120;14.854;2023-01-29T04:48:05;0.20;99.90
37378;DHT22;23248;48.120;14.854;2023-01-29T04:50:38;0.20;99.90
37378;DHT22;23248;48.120;14.854;2023-01-29T05:00:30;0.20;99.90
37378;DHT22;23248;48.120;14.854;2023-01-29T05:02:56;0.20;99.90
37378;DHT22;23248;48.120;14.854;2023-01-29T05:05:23;0.20;99.90
37378;DHT22;23248;48.120;14.854;2023-01-29T05:07:49;0.20;99.90
37378;DHT22;23248;48.120;14.854;2023-01-29T05:10:16;0.20;99.90
37378;DHT22;23248;48.120;14.854;2023-01-29T05:12:44;0.10;99.90
37378;DHT22;23248;48.120;14.854;2023-01-29T05:15:12;0.10;99.90
37378;DHT22;23248;48.120;14.854;2023-01-29T05:17:38;0.00;99.90
37378;DHT22;23248;48.120;14.854;2023-01-29T05:20:04;0.00;99.90
37378;DHT22;23248;48.120;14.854;2023-01-29T05:22:30;0.00;99.90
37378;DHT22;23248;48.120;14.854;2023-01-29T05:24:56;0.00;99.90
37378;DHT22;23248;48.120;14.854;2023-01-29T05:27:24;0.00;99.90
37378;DHT22;23248;48.120;14.854;2023-01-29T05:30:12;0.00;99.90
37378;DHT22;23248;48.120;14.854;2023-01-29T05:32:38;0.00;99.90
37378;DHT22;23248;48.120;14.854;2023-01-29T05:35:04;-0.10;99.90
37378;DHT22;23248;48.120;14.854;2023-01-29T05:37:30;0.00;99.90
37378;DHT22;23248;48.120;14.854;2023-01-29T05:39:55;0.00;99.90
37378;DHT22;23248;48.120;14.854;2023-01-29T05:42:21;0.00;99.90
37378;DHT22;23248;48.120;14.854;2023-01-29T05:44:46;0.10;99.90
37378;DHT22;23248;48.120;14.854;2023-01-29T05:47:12;0.10;99.90
37378;DHT22;23248;48.120;14.854;2023-01-29T05:49:38;0.10;99.90
37378;DHT22;23248;48.120;14.854;2023-01-29T05:52:03;0.00;99.90
37378;DHT22;23248;48.120;14.854;2023-01-29T05:54:29;0.00;99.90
37378;DHT22;23248;48.120;14.854;2023-01-29T05:56:54;0.00;99.90
37378;DHT22;23248;48.120;14.854;2023-01-29T05:59:20;0.00;99.90
37378;DHT22;23248;48.120;14.854;2023-01-29T06:01:46;0.00;99.90
37378;DHT22;23248;48.120;14.854;2023-01-29T06:04:11;0.00;99.90
37378;DHT22;23248;48.120;14.854;2023-01-29T06:06:37;0.00;99.90
37378;DHT22;23248;48.120;14.854;2023-01-29T06:09:03;0.00;99.90
37378;DHT22;23248;48.120;14.854;2023-01-29T06:11:28;-0.10;99.90
37378;DHT22;23248;48.120;14.854;2023-01-29T06:13:54;0.00;99.90
37378;DHT22;23248;48.120;14.854;2023-01-29T06:16:19;0.00;99.90
37378;DHT22;23248;48.120;14.854;2023-01-29T06:18:45;-0.10;99.90
37378;DHT22;23248;48.120;14.854;2023-01-29T06:21:11;0.00;99.90
37378;DHT22;23248;48.120;14.854;2023-01-29T06:23:37;0.00;99.90
37378;DHT22;23248;48.120;14.854;2023-01-29T06:26:04;0.00;99.90
37378;DHT22;23248;48.120;14.854;2023-01-29T06:28:30;0.00;99.90
37378;DHT22;23248;48.120;14.854;2023-01-29T06:30:58;0.00;99.90
37378;DHT22;23248;48.120;14.854;2023-01-29T06:33:25;0.00;99.90
37378;DHT22;23248;48.120;14.854;2023-01-29T06:35:55;0.00;99.90
37378;DHT22;23248;48.120;14.854;2023-01-29T06:38:21;-0.10;99.90
37378;DHT22;23248;48.120;14.854;2023-01-29T06:40:46;-0.10;99.90
37378;DHT22;23248;48.120;14.854;2023-01-29T06:43:12;-0.10;99.90
37378;DHT22;23248;48.120;14.854;2023-01-29T06:45:38;-0.10;99.90
37378;DHT22;23248;48.120;14.854;2023-01-29T06:48:10;-0.10;99.90
37378;DHT22;23248;48.120;14.854;2023-01-29T06:50:35;-0.20;99.90
37378;DHT22;23248;48.120;14.854;2023-01-29T06:53:01;-0.20;99.90
37378;DHT22;23248;48.120;14.854;2023-01-29T06:55:26;-0.20;99.90
37378;DHT22;23248;48.120;14.854;2023-01-29T06:57:52;-0.20;99.90
37378;DHT22;23248;48.120;14.854;2023-01-29T07:00:18;-0.20;99.90
37378;DHT22;23248;48.120;14.854;2023-01-29T07:02:47;-0.20;99.90
37378;DHT22;23248;48.120;14.854;2023-01-29T07:05:13;-0.20;99.90
37378;DHT22;23248;48.120;14.854;2023-01-29T07:07:38;-0.20;99.90
37378;DHT22;23248;48.120;14.854;2023-01-29T07:10:04;-0.20;99.90
37378;DHT22;23248;48.120;14.854;2023-01-29T07:12:30;-0.20;99.90
37378;DHT22;23248;48.120;14.854;2023-01-29T07:14:55;-0.20;99.90
37378;DHT22;23248;48.120;14.854;2023-01-29T07:17:21;-0.20;99.90
37378;DHT22;23248;48.120;14.854;2023-01-29T07:19:47;-0.10;99.90
37378;DHT22;23248;48.120;14.854;2023-01-29T07:22:12;-0.10;99.90
37378;DHT22;23248;48.120;14.854;2023-01-29T07:24:38;-0.10;99.90
37378;DHT22;23248;48.120;14.854;2023-01-29T07:27:04;-0.10;99.90
37378;DHT22;23248;48.120;14.854;2023-01-29T07:29:29;-0.10;99.90
37378;DHT22;23248;48.120;14.854;2023-01-29T07:31:55;-0.10;99.90
37378;DHT22;23248;48.120;14.854;2023-01-29T07:34:21;-0.10;99.90
37378;DHT22;23248;48.120;14.854;2023-01-29T07:36:46;0.00;99.90
37378;DHT22;23248;48.120;14.854;2023-01-29T07:39:12;0.00;99.90
37378;DHT22;23248;48.120;14.854;2023-01-29T07:41:37;0.00;99.90
37378;DHT22;23248;48.120;14.854;2023-01-29T07:44:03;0.00;99.90
37378;DHT22;23248;48.120;14.854;2023-01-29T07:46:29;0.10;99.90
37378;DHT22;23248;48.120;14.854;2023-01-29T07:48:54;0.10;99.90
37378;DHT22;23248;48.120;14.854;2023-01-29T07:51:20;0.10;99.90
37378;DHT22;23248;48.120;14.854;2023-01-29T07:53:45;0.00;99.90
37378;DHT22;23248;48.120;14.854;2023-01-29T07:56:11;0.10;99.90
37378;DHT22;23248;48.120;14.854;2023-01-29T07:58:37;0.00;99.90
37378;DHT22;23248;48.120;14.854;2023-01-29T08:01:06;0.10;99.90
37378;DHT22;23248;48.120;14.854;2023-01-29T08:03:32;0.10;99.90
37378;DHT22;23248;48.120;14.854;2023-01-29T08:05:58;0.20;99.90
37378;DHT22;23248;48.120;14.854;2023-01-29T08:08:23;0.20;99.90
37378;DHT22;23248;48.120;14.854;2023-01-29T08:10:50;0.20;99.90
37378;DHT22;23248;48.120;14.854;2023-01-29T08:13:15;0.30;99.90
37378;DHT22;23248;48.120;14.854;2023-01-29T08:15:43;0.30;99.90
37378;DHT22;23248;48.120;14.854;2023-01-29T08:18:12;0.40;99.90
37378;DHT22;23248;48.120;14.854;2023-01-29T08:20:38;0.40;99.90
37378;DHT22;23248;48.120;14.854;2023-01-29T08:23:05;0.40;99.90
37378;DHT22;23248;48.120;14.854;2023-01-29T08:25:31;0.50;99.90
37378;DHT22;23248;48.120;14.854;2023-01-29T08:27:57;0.40;99.90
37378;DHT22;23248;48.120;14.854;2023-01-29T08:30:26;0.40;99.90
37378;DHT22;23248;48.120;14.854;2023-01-29T08:32:51;0.40;99.90
37378;DHT22;23248;48.120;14.854;2023-01-29T08:35:17;0.50;99.90
37378;DHT22;23248;48.120;14.854;2023-01-29T08:37:43;0.50;99.90
37378;DHT22;23248;48.120;14.854;2023-01-29T08:40:09;0.50;99.90
37378;DHT22;23248;48.120;14.854;2023-01-29T08:42:36;0.50;99.90
37378;DHT22;23248;48.120;14.854;2023-01-29T08:45:02;0.60;99.90
37378;DHT22;23248;48.120;14.854;2023-01-29T08:47:27;0.60;99.90
37378;DHT22;23248;48.120;14.854;2023-01-29T08:49:53;0.60;99.90
37378;DHT22;23248;48.120;14.854;2023-01-29T08:52:19;0.60;99.90
37378;DHT22;23248;48.120;14.854;2023-01-29T08:54:44;0.70;99.90
37378;DHT22;23248;48.120;14.854;2023-01-29T08:57:10;0.70;99.90
37378;DHT22;23248;48.120;14.854;2023-01-29T08:59:36;0.70;99.90
37378;DHT22;23248;48.120;14.854;2023-01-29T09:02:02;0.70;99.90
37378;DHT22;23248;48.120;14.854;2023-01-29T09:04:28;0.80;99.90
37378;DHT22;23248;48.120;14.854;2023-01-29T09:06:53;0.80;99.90
37378;DHT22;23248;48.120;14.854;2023-01-29T09:09:19;0.80;99.90
37378;DHT22;23248;48.120;14.854;2023-01-29T09:11:44;0.70;99.90
37378;DHT22;23248;48.120;14.854;2023-01-29T09:14:10;0.80;99.90
37378;DHT22;23248;48.120;14.854;2023-01-29T09:16:37;0.80;99.90
37378;DHT22;23248;48.120;14.854;2023-01-29T09:19:02;0.80;99.90
37378;DHT22;23248;48.120;14.854;2023-01-29T09:21:28;0.90;99.90
37378;DHT22;23248;48.120;14.854;2023-01-29T09:23:54;0.80;99.90
37378;DHT22;23248;48.120;14.854;2023-01-29T09:26:19;0.80;99.90
37378;DHT22;23248;48.120;14.854;2023-01-29T09:28:45;0.80;99.90
37378;DHT22;23248;48.120;14.854;2023-01-29T09:31:11;0.90;99.90
37378;DHT22;23248;48.120;14.854;2023-01-29T09:33:36;0.80;99.90
37378;DHT22;23248;48.120;14.854;2023-01-29T09:36:02;0.90;99.90
37378;DHT22;23248;48.120;14.854;2023-01-29T09:38:28;0.90;99.90
37378;DHT22;23248;48.120;14.854;2023-01-29T09:43:22;0.80;99.90
37378;DHT22;23248;48.120;14.854;2023-01-29T09:45:51;0.90;99.90
37378;DHT22;23248;48.120;14.854;2023-01-29T09:48:18;0.90;99.90
37378;DHT22;23248;48.120;14.854;2023-01-29T09:50:45;1.00;99.90
37378;DHT22;23248;48.120;14.854;2023-01-29T09:53:17;1.00;99.90
37378;DHT22;23248;48.120;14.854;2023-01-29T09:55:45;1.10;99.90
37378;DHT22;23248;48.120;14.854;2023-01-29T10:14:20;0.90;99.90
37378;DHT22;23248;48.120;14.854;2023-01-29T10:19:34;1.00;99.90
37378;DHT22;23248;48.120;14.854;2023-01-29T10:26:58;0.90;99.90
37378;DHT22;23248;48.120;14.854;2023-01-29T10:29:25;0.90;99.90
37378;DHT22;23248;48.120;14.854;2023-01-29T10:31:53;1.00;99.90
37378;DHT22;23248;48.120;14.854;2023-01-29T10:34:26;1.00;99.90
37378;DHT22;23248;48.120;14.854;2023-01-29T10:36:54;1.00;99.90
37378;DHT22;23248;48.120;14.854;2023-01-29T10:39:22;0.90;99.90
37378;DHT22;23248;48.120;14.854;2023-01-29T10:42:01;0.90;99.90
37378;DHT22;23248;48.120;14.854;2023-01-29T10:47:39;0.90;99.90
37378;DHT22;23248;48.120;14.854;2023-01-29T10:55:32;1.00;99.90
37378;DHT22;23248;48.120;14.854;2023-01-29T10:58:24;1.00;99.90
37378;DHT22;23248;48.120;14.854;2023-01-29T11:00:46;1.00;99.90
37378;DHT22;23248;48.120;14.854;2023-01-29T11:03:13;1.00;99.90
37378;DHT22;23248;48.120;14.854;2023-01-29T11:05:52;1.00;99.90
37378;DHT22;23248;48.120;14.854;2023-01-29T11:08:20;1.00;99.90
37378;DHT22;23248;48.120;14.854;2023-01-29T11:10:58;1.00;99.90
37378;DHT22;23248;48.120;14.854;2023-01-29T11:13:31;1.00;99.90
37378;DHT22;23248;48.120;14.854;2023-01-29T11:15:59;1.00;99.90
37378;DHT22;23248;48.120;14.854;2023-01-29T11:18:24;1.00;99.90
37378;DHT22;23248;48.120;14.854;2023-01-29T11:21:03;1.00;99.90
37378;DHT22;23248;48.120;14.854;2023-01-29T11:23:30;1.00;99.90
37378;DHT22;23248;48.120;14.854;2023-01-29T11:25:57;1.00;99.90
37378;DHT22;23248;48.120;14.854;2023-01-29T11:28:36;1.10;99.90
37378;DHT22;23248;48.120;14.854;2023-01-29T11:31:02;1.10;99.90
37378;DHT22;23248;48.120;14.854;2023-01-29T11:33:27;1.00;99.90
37378;DHT22;23248;48.120;14.854;2023-01-29T11:35:54;1.10;99.90
37378;DHT22;23248;48.120;14.854;2023-01-29T11:38:23;1.10;99.90
37378;DHT22;23248;48.120;14.854;2023-01-29T11:40:49;1.10;99.90
37378;DHT22;23248;48.120;14.854;2023-01-29T11:43:30;1.10;99.90
37378;DHT22;23248;48.120;14.854;2023-01-29T11:45:57;1.10;99.90
37378;DHT22;23248;48.120;14.854;2023-01-29T11:48:43;1.10;99.90
37378;DHT22;23248;48.120;14.854;2023-01-29T11:51:11;1.10;99.90
37378;DHT22;23248;48.120;14.854;2023-01-29T11:53:44;1.00;99.90
37378;DHT22;23248;48.120;14.854;2023-01-29T11:56:26;1.00;99.90
37378;DHT22;23248;48.120;14.854;2023-01-29T11:58:53;1.00;99.90
37378;DHT22;23248;48.120;14.854;2023-01-29T12:01:31;1.00;99.90
37378;DHT22;23248;48.120;14.854;2023-01-29T12:03:57;1.10;99.90
37378;DHT22;23248;48.120;14.854;2023-01-29T12:06:25;1.20;99.90
37378;DHT22;23248;48.120;14.854;2023-01-29T12:08:56;1.20;99.90
37378;DHT22;23248;48.120;14.854;2023-01-29T12:11:32;1.20;99.90
37378;DHT22;23248;48.120;14.854;2023-01-29T12:13:59;1.10;99.90
37378;DHT22;23248;48.120;14.854;2023-01-29T12:16:47;1.10;99.90
37378;DHT22;23248;48.120;14.854;2023-01-29T12:19:24;1.10;99.90
37378;DHT22;23248;48.120;14.854;2023-01-29T12:24:52;1.10;99.90
37378;DHT22;23248;48.120;14.854;2023-01-29T12:29:59;1.20;99.90
37378;DHT22;23248;48.120;14.854;2023-01-29T12:33:16;1.20;99.90
37378;DHT22;23248;48.120;14.854;2023-01-29T12:41:03;1.30;99.90
37378;DHT22;23248;48.120;14.854;2023-01-29T12:43:22;1.30;99.90
37378;DHT22;23248;48.120;14.854;2023-01-29T12:45:51;1.30;99.90
37378;DHT22;23248;48.120;14.854;2023-01-29T12:48:19;1.30;99.90
37378;DHT22;23248;48.120;14.854;2023-01-29T12:50:47;1.30;99.90
37378;DHT22;23248;48.120;14.854;2023-01-29T12:55:44;1.40;99.90
37378;DHT22;23248;48.120;14.854;2023-01-29T12:58:16;1.40;99.90
37378;DHT22;23248;48.120;14.854;2023-01-29T13:00:45;1.40;99.90
37378;DHT22;23248;48.120;14.854;2023-01-29T13:06:07;1.50;99.90
37378;DHT22;23248;48.120;14.854;2023-01-29T13:08:36;1.40;99.90
37378;DHT22;23248;48.120;14.854;2023-01-29T13:11:05;1.50;99.90
37378;DHT22;23248;48.120;14.854;2023-01-29T13:13:35;1.50;99.90
37378;DHT22;23248;48.120;14.854;2023-01-29T13:16:04;1.50;99.90
37378;DHT22;23248;48.120;14.854;2023-01-29T13:18:43;1.50;99.90
37378;DHT22;23248;48.120;14.854;2023-01-29T13:21:17;1.50;99.90
37378;DHT22;23248;48.120;14.854;2023-01-29T13:23:45;1.50;99.90
37378;DHT22;23248;48.120;14.854;2023-01-29T13:26:12;1.40;99.90
37378;DHT22;23248;48.120;14.854;2023-01-29T13:28:37;1.40;99.90
37378;DHT22;23248;48.120;14.854;2023-01-29T13:33:51;1.40;99.90
37378;DHT22;23248;48.120;14.854;2023-01-29T13:36:19;1.30;99.90
37378;DHT22;23248;48.120;14.854;2023-01-29T13:38:48;1.40;99.90
37378;DHT22;23248;48.120;14.854;2023-01-29T13:41:18;1.40;99.90
37378;DHT22;23248;48.120;14.854;2023-01-29T13:43:47;1.40;99.90
37378;DHT22;23248;48.120;14.854;2023-01-29T13:46:15;1.40;99.90
37378;DHT22;23248;48.120;14.854;2023-01-29T13:48:46;1.40;99.90
37378;DHT22;23248;48.120;14.854;2023-01-29T13:51:13;1.40;99.90
37378;DHT22;23248;48.120;14.854;2023-01-29T13:53:41;1.40;99.90
37378;DHT22;23248;48.120;14.854;2023-01-29T13:58:52;1.50;99.90
37378;DHT22;23248;48.120;14.854;2023-01-29T14:01:39;1.50;99.90
37378;DHT22;23248;48.120;14.854;2023-01-29T14:04:13;1.40;99.90
37378;DHT22;23248;48.120;14.854;2023-01-29T14:06:41;1.40;99.90
37378;DHT22;23248;48.120;14.854;2023-01-29T14:11:51;1.30;99.90
37378;DHT22;23248;48.120;14.854;2023-01-29T14:17:01;1.30;99.90
37378;DHT22;23248;48.120;14.854;2023-01-29T14:19:27;1.20;99.90
37378;DHT22;23248;48.120;14.854;2023-01-29T14:21:52;1.20;99.90
37378;DHT22;23248;48.120;14.854;2023-01-29T14:24:19;1.20;99.90
37378;DHT22;23248;48.120;14.854;2023-01-29T14:26:46;1.20;99.90
37378;DHT22;23248;48.120;14.854;2023-01-29T14:31:41;1.30;99.90
37378;DHT22;23248;48.120;14.854;2023-01-29T14:37:01;1.20;99.90
37378;DHT22;23248;48.120;14.854;2023-01-29T14:41:57;1.20;99.90
37378;DHT22;23248;48.120;14.854;2023-01-29T14:47:16;1.20;99.90
37378;DHT22;23248;48.120;14.854;2023-01-29T14:49:49;1.20;99.90
37378;DHT22;23248;48.120;14.854;2023-01-29T14:52:15;1.20;99.90
37378;DHT22;23248;48.120;14.854;2023-01-29T14:54:42;1.20;99.90
37378;DHT22;23248;48.120;14.854;2023-01-29T14:57:11;1.10;99.90
37378;DHT22;23248;48.120;14.854;2023-01-29T14:59:42;1.10;99.90
37378;DHT22;23248;48.120;14.854;2023-01-29T15:02:16;1.10;99.90
37378;DHT22;23248;48.120;14.854;2023-01-29T15:04:45;1.10;99.90
37378;DHT22;23248;48.120;14.854;2023-01-29T15:08:12;1.10;99.90
37378;DHT22;23248;48.120;14.854;2023-01-29T15:12:45;1.00;99.90
37378;DHT22;23248;48.120;14.854;2023-01-29T15:22:55;1.00;99.90
37378;DHT22;23248;48.120;14.854;2023-01-29T15:25:21;1.00;99.90
37378;DHT22;23248;48.120;14.854;2023-01-29T15:27:47;1.00;99.90
37378;DHT22;23248;48.120;14.854;2023-01-29T15:30:18;1.00;99.90
37378;DHT22;23248;48.120;14.854;2023-01-29T15:32:44;1.00;99.90
37378;DHT22;23248;48.120;14.854;2023-01-29T15:37:39;0.90;99.90
37378;DHT22;23248;48.120;14.854;2023-01-29T15:40:11;0.90;99.90
37378;DHT22;23248;48.120;14.854;2023-01-29T15:42:44;0.90;99.90
37378;DHT22;23248;48.120;14.854;2023-01-29T15:45:20;0.90;99.90
37378;DHT22;23248;48.120;14.854;2023-01-29T15:47:46;0.90;99.90
37378;DHT22;23248;48.120;14.854;2023-01-29T15:50:12;0.90;99.90
37378;DHT22;23248;48.120;14.854;2023-01-29T15:52:38;0.90;99.90
37378;DHT22;23248;48.120;14.854;2023-01-29T15:55:05;0.80;99.90
37378;DHT22;23248;48.120;14.854;2023-01-29T15:57:33;0.80;99.90
37378;DHT22;23248;48.120;14.854;2023-01-29T16:00:02;0.80;99.90
37378;DHT22;23248;48.120;14.854;2023-01-29T16:04:57;0.80;99.90
37378;DHT22;23248;48.120;14.854;2023-01-29T16:07:23;0.80;99.90
37378;DHT22;23248;48.120;14.854;2023-01-29T16:09:49;0.80;99.90
37378;DHT22;23248;48.120;14.854;2023-01-29T16:12:16;0.80;99.90
37378;DHT22;23248;48.120;14.854;2023-01-29T16:14:42;0.80;99.90
37378;DHT22;23248;48.120;14.854;2023-01-29T16:17:24;0.80;99.90
37378;DHT22;23248;48.120;14.854;2023-01-29T16:20:00;0.70;99.90
37378;DHT22;23248;48.120;14.854;2023-01-29T16:22:33;0.80;99.90
37378;DHT22;23248;48.120;14.854;2023-01-29T16:25:03;0.80;99.90
37378;DHT22;23248;48.120;14.854;2023-01-29T16:27:29;0.80;99.90
37378;DHT22;23248;48.120;14.854;2023-01-29T16:29:55;0.70;99.90
37378;DHT22;23248;48.120;14.854;2023-01-29T16:32:22;0.70;99.90
37378;DHT22;23248;48.120;14.854;2023-01-29T16:34:47;0.70;99.90
37378;DHT22;23248;48.120;14.854;2023-01-29T16:37:30;0.70;99.90
37378;DHT22;23248;48.120;14.854;2023-01-29T16:39:56;0.60;99.90
37378;DHT22;23248;48.120;14.854;2023-01-29T16:42:29;0.70;99.90
37378;DHT22;23248;48.120;14.854;2023-01-29T16:44:56;0.70;99.90
37378;DHT22;23248;48.120;14.854;2023-01-29T16:47:30;0.70;99.90
37378;DHT22;23248;48.120;14.854;2023-01-29T16:52:29;0.70;99.90
37378;DHT22;23248;48.120;14.854;2023-01-29T16:55:00;0.70;99.90
37378;DHT22;23248;48.120;14.854;2023-01-29T16:57:30;0.70;99.90
37378;DHT22;23248;48.120;14.854;2023-01-29T16:59:59;0.70;99.90
37378;DHT22;23248;48.120;14.854;2023-01-29T17:02:29;0.70;99.90
37378;DHT22;23248;48.120;14.854;2023-01-29T17:05:00;0.70;99.90
37378;DHT22;23248;48.120;14.854;2023-01-29T17:07:26;0.70;99.90
37378;DHT22;23248;48.120;14.854;2023-01-29T17:09:53;0.70;99.90
37378;DHT22;23248;48.120;14.854;2023-01-29T17:12:21;0.60;99.90
37378;DHT22;23248;48.120;14.854;2023-01-29T17:15:00;0.70;99.90
37378;DHT22;23248;48.120;14.854;2023-01-29T17:17:30;0.70;99.90
37378;DHT22;23248;48.120;14.854;2023-01-29T17:19:57;0.70;99.90
37378;DHT22;23248;48.120;14.854;2023-01-29T17:22:23;0.70;99.90
37378;DHT22;23248;48.120;14.854;2023-01-29T17:24:49;0.70;99.90
37378;DHT22;23248;48.120;14.854;2023-01-29T17:27:17;0.80;99.90
37378;DHT22;23248;48.120;14.854;2023-01-29T17:29:44;0.80;99.90
37378;DHT22;23248;48.120;14.854;2023-01-29T17:32:10;0.80;99.90
37378;DHT22;23248;48.120;14.854;2023-01-29T17:34:36;0.70;99.90
37378;DHT22;23248;48.120;14.854;2023-01-29T17:37:02;0.80;99.90
37378;DHT22;23248;48.120;14.854;2023-01-29T17:39:28;0.80;99.90
37378;DHT22;23248;48.120;14.854;2023-01-29T17:41:55;0.80;99.90
37378;DHT22;23248;48.120;14.854;2023-01-29T17:44:21;0.80;99.90
37378;DHT22;23248;48.120;14.854;2023-01-29T17:46:47;0.70;99.90
37378;DHT22;23248;48.120;14.854;2023-01-29T17:49:24;0.70;99.90
37378;DHT22;23248;48.120;14.854;2023-01-29T17:51:51;0.70;99.90
37378;DHT22;23248;48.120;14.854;2023-01-29T17:54:17;0.70;99.90
37378;DHT22;23248;48.120;14.854;2023-01-29T17:56:43;0.70;99.90